Time;durP1;ratioP1;P1;durP2;ratioP2;P2;SDS_P1;SDS_P2;PMS_P1;PMS_P2;Temp;Humidity;BMP_temperature;BMP_pressure;BME280_temperature;BME280_humidity;BME280_pressure;Samples;Min_cycle;Max_cycle;Signal;HPM_P1;HPM_P2
2022/12/08 00:01:14;;;;;;;2.75;2.65;;;;;;;12.06;48.80;99766.44;7398858;19;20011;-62
2022/12/08 00:03:41;;;;;;;5.30;2.05;;;;;;;12.19;47.89;99769.66;7396204;19;20015;-62
2022/12/08 00:09:34;;;;;;;13.65;4.53;;;;;;;12.01;47.30;99750.41;7398114;19;20006;-62
2022/12/08 00:12:05;;;;;;;4.03;2.83;;;;;;;11.84;47.85;99760.59;7396432;19;20026;-62
2022/12/08 00:14:41;;;;;;;4.22;2.40;;;;;;;11.99;47.56;99758.50;7399051;19;20074;-62
2022/12/08 00:17:09;;;;;;;8.57;2.88;;;;;;;11.76;46.95;99753.13;7396137;19;20011;-63
2022/12/08 00:19:38;;;;;;;13.70;4.20;;;;;;;11.97;46.83;99749.88;7399794;19;20027;-63
2022/12/08 00:22:05;;;;;;;6.13;2.72;;;;;;;12.09;46.48;99751.53;7395939;19;20015;-62
2022/12/08 00:24:38;;;;;;;7.03;3.33;;;;;;;12.16;46.31;99767.88;7394466;19;20019;-63
2022/12/08 00:27:06;;;;;;;2.42;2.25;;;;;;;12.14;46.50;99758.44;7397614;19;20022;-62
2022/12/08 00:29:32;;;;;;;14.57;3.50;;;;;;;11.81;46.60;99758.75;7397645;19;20465;-62
2022/12/08 00:31:58;;;;;;;7.72;5.05;;;;;;;12.15;46.02;99769.09;7396384;19;20031;-62
2022/12/08 00:34:25;;;;;;;28.50;4.07;;;;;;;12.39;45.42;99756.97;7395056;19;20019;-62
2022/12/08 00:36:51;;;;;;;4.57;3.45;;;;;;;12.30;44.73;99749.47;7393814;19;20077;-63
2022/12/08 00:39:17;;;;;;;10.50;4.57;;;;;;;12.12;44.67;99747.78;7394280;19;20042;-62
2022/12/08 00:44:28;;;;;;;1.13;1.05;;;;;;;11.83;44.68;99733.94;7395316;19;20006;-63
2022/12/08 00:46:55;;;;;;;3.35;3.10;;;;;;;11.94;44.86;99734.09;7395605;19;20090;-63
2022/12/08 00:49:21;;;;;;;4.95;3.78;;;;;;;11.96;45.19;99736.38;7398543;19;20044;-63
2022/12/08 00:51:48;;;;;;;11.05;2.35;;;;;;;12.00;44.87;99734.13;7395290;19;20335;-63
2022/12/08 00:54:14;;;;;;;6.32;2.10;;;;;;;12.12;44.60;99733.81;7395383;19;20462;-63
2022/12/08 00:56:40;;;;;;;2.33;2.13;;;;;;;12.30;44.00;99723.59;7392636;19;20392;-63
2022/12/08 00:59:06;;;;;;;2.08;1.92;;;;;;;12.25;44.33;99724.31;7393970;19;20041;-62
2022/12/08 01:01:33;;;;;;;7.65;3.15;;;;;;;12.25;43.54;99727.09;7393933;19;20003;-63
2022/12/08 01:04:06;;;;;;;1.63;1.52;;;;;;;12.01;43.61;99716.94;7394770;19;20069;-63
2022/12/08 01:06:35;;;;;;;3.08;2.15;;;;;;;11.90;43.55;99716.00;7395185;19;20349;-63
2022/12/08 01:09:03;;;;;;;13.18;4.03;;;;;;;11.97;43.36;99710.03;7396240;19;20037;-63
2022/12/08 01:11:30;;;;;;;2.65;2.55;;;;;;;12.21;43.07;99707.78;7393320;19;20100;-63
2022/12/08 01:13:56;;;;;;;8.40;2.00;;;;;;;12.30;42.69;99709.66;7395557;19;20355;-63
2022/12/08 01:16:28;;;;;;;2.92;1.98;;;;;;;12.27;42.67;99702.25;7393719;19;20015;-63
2022/12/08 01:18:56;;;;;;;3.42;1.52;;;;;;;12.60;42.64;99710.97;7393310;19;20015;-63
2022/12/08 01:21:22;;;;;;;0.50;0.50;;;;;;;12.33;42.65;99711.44;7394250;19;20462;-63
2022/12/08 01:23:48;;;;;;;3.17;2.85;;;;;;;12.51;42.11;99711.13;7392571;19;20019;-63
2022/12/08 01:26:16;;;;;;;11.15;4.03;;;;;;;12.78;41.90;99713.44;7393359;19;20007;-63
2022/12/08 01:28:44;;;;;;;3.83;2.28;;;;;;;12.64;41.67;99703.16;7397184;19;20056;-63
2022/12/08 01:31:14;;;;;;;4.28;3.97;;;;;;;12.76;41.35;99690.81;7392853;19;20014;-63
2022/12/08 01:33:40;;;;;;;6.95;3.40;;;;;;;12.50;41.87;99684.44;7393895;19;20554;-63
2022/12/08 01:36:08;;;;;;;12.30;2.63;;;;;;;12.60;41.54;99685.84;7392220;19;20031;-63
2022/12/08 01:38:34;;;;;;;4.22;3.22;;;;;;;12.87;41.15;99693.69;7393424;19;20106;-63
2022/12/08 01:41:00;;;;;;;20.17;3.00;;;;;;;13.26;40.87;99680.81;7394207;19;20102;-63
2022/12/08 01:43:51;;;;;;;4.22;3.05;;;;;;;13.75;40.25;99678.81;7393702;19;20067;-63
2022/12/08 01:46:17;;;;;;;3.25;3.05;;;;;;;13.53;40.05;99677.44;7392139;19;20562;-63
2022/12/08 01:48:43;;;;;;;39.42;5.40;;;;;;;13.49;40.57;99681.75;7395185;19;20043;-63
2022/12/08 01:51:09;;;;;;;10.85;1.70;;;;;;;13.07;40.53;99667.72;7393327;19;20010;-63
2022/12/08 01:53:35;;;;;;;2.20;1.92;;;;;;;13.17;40.36;99664.22;7391530;19;20465;-63
2022/12/08 01:56:07;;;;;;;5.70;2.85;;;;;;;12.94;40.78;99657.69;7392231;19;20363;-63
2022/12/08 01:58:44;;;;;;;2.42;1.55;;;;;;;13.06;40.62;99661.34;7394872;19;20007;-64
2022/12/08 02:01:11;;;;;;;5.53;3.08;;;;;;;13.35;39.92;99668.66;7392036;19;20324;-64
2022/12/08 02:03:46;;;;;;;11.30;3.13;;;;;;;13.34;40.00;99667.91;7392311;19;20015;-63
2022/12/08 02:06:15;;;;;;;1.45;1.35;;;;;;;13.38;39.74;99662.84;7392999;19;20014;-63
2022/12/08 02:08:42;;;;;;;8.60;3.42;;;;;;;13.34;39.59;99667.91;7393675;19;20084;-63
2022/12/08 02:11:10;;;;;;;3.90;1.95;;;;;;;13.31;39.41;99654.94;7392112;19;20014;-63
2022/12/08 02:13:36;;;;;;;1.65;1.55;;;;;;;13.41;38.97;99656.25;7392453;19;20018;-63
2022/12/08 02:16:08;;;;;;;2.35;1.75;;;;;;;13.23;39.14;99653.84;7394237;19;20478;-63
2022/12/08 02:19:04;;;;;;;1.77;1.67;;;;;;;13.02;39.33;99658.00;7392960;19;20540;-63
2022/12/08 02:21:45;;;;;;;3.45;2.00;;;;;;;12.68;39.18;99654.16;7391203;19;20010;-63
2022/12/08 02:24:26;;;;;;;3.30;2.55;;;;;;;12.47;39.42;99652.72;7389460;19;20014;-63
2022/12/08 02:26:58;;;;;;;3.47;3.25;;;;;;;12.31;39.85;99646.94;7391225;19;20073;-63
2022/12/08 02:30:03;;;;;;;9.23;4.07;;;;;;;12.22;40.37;99649.88;7394046;19;20429;-63
2022/12/08 02:32:47;;;;;;;7.00;3.40;;;;;;;12.24;39.95;99642.56;7391050;19;20034;-64
2022/12/08 02:35:26;;;;;;;3.03;2.83;;;;;;;12.18;39.78;99636.94;7391903;19;20026;-63
2022/12/08 02:38:15;;;;;;;10.32;4.28;;;;;;;12.10;39.94;99641.41;7390180;19;20014;-63
2022/12/08 02:40:51;;;;;;;2.97;2.75;;;;;;;12.18;40.18;99638.94;7391739;19;20002;-63
2022/12/08 02:43:43;;;;;;;9.23;3.15;;;;;;;12.29;40.23;99629.91;7391700;19;20033;-63
2022/12/08 02:46:23;;;;;;;4.72;2.25;;;;;;;12.34;40.23;99634.81;7390690;19;20006;-63
2022/12/08 02:48:51;;;;;;;5.70;4.03;;;;;;;12.49;39.97;99636.22;7393543;19;20014;-63
2022/12/08 02:51:18;;;;;;;1.15;1.10;;;;;;;12.47;40.08;99635.19;7390560;19;20022;-63
2022/12/08 02:53:45;;;;;;;1.48;1.48;;;;;;;12.05;39.70;99636.53;7391033;19;20006;-63
2022/12/08 02:56:53;;;;;;;0.85;0.85;;;;;;;12.12;40.16;99629.75;7390770;19;20516;-64
2022/12/08 03:00:04;;;;;;;2.35;2.15;;;;;;;12.10;39.81;99618.31;7387520;19;20010;-64
2022/12/08 03:02:49;;;;;;;6.73;2.20;;;;;;;11.75;40.20;99626.81;7390646;19;20006;-64
2022/12/08 03:05:33;;;;;;;0.88;0.88;;;;;;;11.85;39.90;99617.03;7390486;19;20027;-63
2022/12/08 03:08:11;;;;;;;8.60;4.47;;;;;;;11.66;39.78;99621.34;7389981;19;20045;-64
2022/12/08 03:10:43;;;;;;;6.93;3.35;;;;;;;11.81;39.67;99638.00;7390993;19;20062;-63
2022/12/08 03:13:16;;;;;;;4.75;3.10;;;;;;;11.67;39.61;99625.69;7390289;19;20033;-64
2022/12/08 03:15:45;;;;;;;4.05;1.75;;;;;;;11.67;40.10;99624.91;7389212;19;20019;-64
2022/12/08 03:18:14;;;;;;;2.00;1.85;;;;;;;11.74;40.18;99616.88;7390288;19;20010;-64
2022/12/08 03:20:44;;;;;;;1.55;1.30;;;;;;;12.02;39.97;99612.38;7388949;19;20380;-64
2022/12/08 03:23:13;;;;;;;0.73;0.73;;;;;;;11.84;40.11;99607.13;7390942;19;20010;-64
2022/12/08 03:25:45;;;;;;;1.08;1.08;;;;;;;12.25;40.01;99602.22;7389312;19;20555;-64
2022/12/08 03:28:12;;;;;;;2.78;2.03;;;;;;;12.16;39.79;99600.38;7393547;19;20018;-63
2022/12/08 03:30:43;;;;;;;0.55;0.55;;;;;;;12.25;39.50;99598.66;7390475;19;20031;-63
2022/12/08 03:33:16;;;;;;;2.95;2.72;;;;;;;12.36;39.02;99593.97;7390217;19;20033;-64
2022/12/08 03:35:45;;;;;;;0.85;0.85;;;;;;;12.27;39.00;99594.13;7390473;19;20010;-64
2022/12/08 03:38:14;;;;;;;5.82;1.55;;;;;;;12.59;38.90;99592.88;7388788;19;20351;-63
2022/12/08 03:40:40;;;;;;;11.30;2.75;;;;;;;12.99;37.94;99579.97;7390197;19;20015;-64
2022/12/08 03:43:07;;;;;;;1.50;1.50;;;;;;;12.84;37.90;99588.50;7389695;19;20033;-64
2022/12/08 03:45:33;;;;;;;1.67;1.58;;;;;;;12.69;38.00;99583.03;7389790;19;20023;-64
2022/12/08 03:47:59;;;;;;;4.22;3.45;;;;;;;13.01;37.50;99578.19;7390265;19;20011;-64
2022/12/08 03:50:26;;;;;;;2.42;2.33;;;;;;;13.11;37.68;99573.19;7387163;19;20011;-64
2022/12/08 03:52:52;;;;;;;4.10;2.78;;;;;;;13.35;37.71;99574.34;7388815;19;20327;-64
2022/12/08 03:55:20;;;;;;;1.77;1.67;;;;;;;13.44;37.17;99576.94;7389952;19;20485;-64
2022/12/08 03:57:46;;;;;;;1.02;1.02;;;;;;;13.31;37.18;99568.22;7391198;19;20024;-64
2022/12/08 04:00:14;;;;;;;2.40;1.65;;;;;;;13.55;37.21;99573.41;7389700;19;20019;-64
2022/12/08 04:02:40;;;;;;;1.02;1.02;;;;;;;13.66;37.14;99559.47;7388005;19;20086;-64
2022/12/08 04:05:07;;;;;;;4.60;1.70;;;;;;;13.96;36.59;99565.41;7388823;19;20336;-63
2022/12/08 04:07:33;;;;;;;4.75;2.63;;;;;;;13.88;36.19;99564.38;7387825;19;20024;-63
2022/12/08 04:09:59;;;;;;;1.50;1.10;;;;;;;13.78;36.43;99565.84;7392997;19;20015;-63
2022/12/08 04:12:25;;;;;;;2.53;1.67;;;;;;;13.73;36.43;99575.75;7392548;19;20027;-61
2022/12/08 04:14:51;;;;;;;2.20;1.27;;;;;;;13.71;36.33;99560.75;7392551;19;20029;-61
2022/12/08 04:17:18;;;;;;;8.85;2.67;;;;;;;13.53;36.40;99564.75;7392538;19;20002;-61
2022/12/08 04:19:44;;;;;;;4.07;1.50;;;;;;;13.65;36.24;99566.31;7390813;19;20010;-61
2022/12/08 04:22:10;;;;;;;4.13;1.88;;;;;;;13.72;36.45;99567.88;7391934;19;20754;-61
2022/12/08 04:24:36;;;;;;;2.00;1.90;;;;;;;13.92;35.92;99559.28;7391839;19;20043;-61
2022/12/08 04:27:02;;;;;;;1.52;1.50;;;;;;;13.85;35.98;99562.56;7390508;19;20013;-61
2022/12/08 04:29:28;;;;;;;1.95;1.85;;;;;;;14.01;35.83;99556.25;7390635;19;20493;-61
2022/12/08 04:31:54;;;;;;;4.82;2.70;;;;;;;14.02;35.76;99557.78;7397029;19;20070;-61
2022/12/08 04:34:20;;;;;;;3.45;2.20;;;;;;;14.18;35.50;99554.25;7399575;19;19998;-61
2022/12/08 04:36:47;;;;;;;6.38;1.88;;;;;;;14.24;35.91;99543.81;7399333;19;20003;-61
2022/12/08 04:39:13;;;;;;;1.40;1.30;;;;;;;14.31;35.73;99541.28;7396025;19;20019;-61
2022/12/08 04:41:39;;;;;;;3.70;3.42;;;;;;;14.16;36.03;99539.97;7398079;19;20011;-61
2022/12/08 04:44:05;;;;;;;4.50;1.90;;;;;;;14.15;35.61;99538.44;7399516;19;20013;-61
2022/12/08 04:46:31;;;;;;;1.40;1.40;;;;;;;14.25;35.93;99536.94;7395199;19;20015;-61
2022/12/08 04:48:57;;;;;;;2.05;0.98;;;;;;;14.28;35.55;99531.06;7397445;19;20017;-61
2022/12/08 04:51:23;;;;;;;2.15;2.05;;;;;;;14.22;35.01;99526.75;7399500;19;20010;-61
2022/12/08 04:53:49;;;;;;;2.38;2.03;;;;;;;14.15;35.06;99521.63;7399998;19;20561;-61
2022/12/08 04:56:17;;;;;;;2.83;2.58;;;;;;;13.77;35.08;99527.94;7393633;19;20007;-61
2022/12/08 04:58:44;;;;;;;1.33;1.33;;;;;;;13.57;35.67;99528.91;7397659;19;20014;-61
2022/12/08 05:01:11;;;;;;;3.00;1.52;;;;;;;13.56;35.72;99532.97;7394547;19;20085;-61
2022/12/08 05:03:37;;;;;;;4.78;1.52;;;;;;;13.18;36.05;99525.97;7394306;19;20022;-61
2022/12/08 05:06:04;;;;;;;2.92;1.83;;;;;;;13.11;35.68;99525.66;7394401;19;20018;-61
2022/12/08 05:08:31;;;;;;;5.38;3.22;;;;;;;13.05;35.92;99522.84;7395308;19;20032;-62
2022/12/08 05:11:05;;;;;;;1.15;1.15;;;;;;;13.06;35.68;99523.63;7394235;19;20644;-61
2022/12/08 05:13:31;;;;;;;15.40;4.65;;;;;;;13.13;35.57;99521.09;7394002;19;20510;-61
2022/12/08 05:16:06;;;;;;;1.13;1.13;;;;;;;13.22;35.58;99526.50;7392833;19;20053;-61
2022/12/08 05:18:32;;;;;;;8.82;2.17;;;;;;;13.39;35.42;99516.13;7394748;19;20007;-62
2022/12/08 05:20:58;;;;;;;1.83;1.73;;;;;;;13.23;35.49;99518.88;7394184;19;20018;-61
2022/12/08 05:23:26;;;;;;;1.30;1.30;;;;;;;13.47;35.52;99531.16;7394581;19;20011;-61
2022/12/08 05:25:52;;;;;;;1.23;0.95;;;;;;;13.67;35.63;99516.22;7394244;19;20037;-61
2022/12/08 05:28:19;;;;;;;4.18;3.38;;;;;;;13.77;35.35;99525.94;7397555;19;20021;-61
2022/12/08 05:30:45;;;;;;;1.08;1.08;;;;;;;13.95;35.06;99527.47;7394227;19;20017;-61
2022/12/08 05:33:11;;;;;;;4.88;4.25;;;;;;;13.90;34.93;99523.41;7392973;19;20014;-61
2022/12/08 05:35:37;;;;;;;0.95;0.95;;;;;;;13.92;34.86;99525.69;7392041;19;20484;-61
2022/12/08 05:38:04;;;;;;;1.25;1.25;;;;;;;13.87;34.89;99532.03;7393236;19;20078;-62
2022/12/08 05:40:30;;;;;;;2.53;2.33;;;;;;;13.95;34.65;99536.63;7393062;19;20021;-62
2022/12/08 05:42:56;;;;;;;3.80;1.35;;;;;;;14.07;34.99;99537.41;7392381;19;20010;-61
2022/12/08 05:45:22;;;;;;;3.33;1.48;;;;;;;14.24;34.91;99535.41;7393349;19;20007;-61
2022/12/08 05:47:49;;;;;;;11.38;3.35;;;;;;;14.11;35.19;99533.09;7393987;19;20014;-61
2022/12/08 05:50:15;;;;;;;3.95;2.15;;;;;;;14.07;34.97;99526.22;7393365;19;20078;-61
2022/12/08 05:52:41;;;;;;;2.63;2.50;;;;;;;14.53;35.01;99529.31;7392283;19;20022;-62
2022/12/08 05:55:08;;;;;;;2.72;2.22;;;;;;;14.67;35.16;99522.69;7393608;19;20070;-62
2022/12/08 05:57:34;;;;;;;3.13;1.75;;;;;;;14.84;34.78;99520.59;7394914;19;20032;-62
2022/12/08 06:00:01;;;;;;;2.45;2.28;;;;;;;14.80;34.68;99519.34;7395361;19;20015;-62
2022/12/08 06:02:27;;;;;;;1.48;1.45;;;;;;;14.69;34.91;99514.53;7392876;19;20462;-61
2022/12/08 06:04:53;;;;;;;1.48;1.08;;;;;;;14.75;35.39;99506.13;7391825;19;20015;-61
2022/12/08 06:07:19;;;;;;;2.30;0.90;;;;;;;15.03;35.04;99499.13;7393116;19;20070;-61
2022/12/08 06:09:45;;;;;;;11.23;1.95;;;;;;;14.93;35.37;99497.91;7395349;19;20011;-62
2022/12/08 06:12:11;;;;;;;1.38;1.27;;;;;;;15.00;34.97;99500.19;7392434;19;20011;-62
2022/12/08 06:14:38;;;;;;;1.30;1.30;;;;;;;15.01;34.93;99512.16;7395034;19;20022;-61
2022/12/08 06:17:04;;;;;;;6.53;4.03;;;;;;;14.89;34.86;99507.84;7392253;19;20495;-61
2022/12/08 06:19:30;;;;;;;7.50;3.45;;;;;;;15.09;34.75;99508.28;7393494;19;20011;-61
2022/12/08 06:21:57;;;;;;;26.45;3.88;;;;;;;15.04;34.64;99511.91;7392191;19;20019;-61
2022/12/08 06:24:23;;;;;;;4.32;2.60;;;;;;;15.05;34.49;99505.00;7391934;19;20014;-61
2022/12/08 06:26:49;;;;;;;0.80;0.80;;;;;;;15.15;34.40;99503.44;7392819;19;20043;-61
2022/12/08 06:29:15;;;;;;;8.90;3.10;;;;;;;15.23;34.50;99488.88;7393790;19;20014;-61
2022/12/08 06:31:42;;;;;;;7.15;3.05;;;;;;;15.00;34.53;99511.41;7392398;19;20027;-61
2022/12/08 06:34:08;;;;;;;2.65;2.53;;;;;;;14.98;34.83;99497.13;7389344;19;20681;-61
2022/12/08 06:36:34;;;;;;;4.88;2.50;;;;;;;15.44;34.69;99504.13;7391394;19;20015;-61
2022/12/08 06:39:00;;;;;;;4.28;3.97;;;;;;;15.14;34.41;99498.34;7392964;19;20015;-61
2022/12/08 06:41:27;;;;;;;1.48;1.38;;;;;;;15.01;34.65;99506.53;7392064;19;20010;-61
2022/12/08 06:43:56;;;;;;;3.97;2.03;;;;;;;15.11;34.71;99494.53;7391455;19;20442;-61
2022/12/08 06:46:23;;;;;;;1.58;1.42;;;;;;;15.50;34.60;99491.59;7389567;19;20031;-61
2022/12/08 06:48:49;;;;;;;1.45;1.35;;;;;;;15.69;34.41;99486.13;7392423;19;20070;-61
2022/12/08 06:51:18;;;;;;;1.95;1.83;;;;;;;15.57;34.21;99487.47;7390368;19;20007;-61
2022/12/08 06:53:45;;;;;;;2.35;1.58;;;;;;;15.07;34.52;99491.22;7390318;19;20013;-61
2022/12/08 06:56:14;;;;;;;5.57;2.85;;;;;;;15.31;34.50;99484.25;7389623;19;20010;-61
2022/12/08 06:58:41;;;;;;;3.17;2.55;;;;;;;15.08;34.85;99473.13;7394233;19;20023;-61
2022/12/08 07:01:11;;;;;;;5.80;2.53;;;;;;;15.22;34.68;99482.50;7390183;19;20033;-61
2022/12/08 07:03:38;;;;;;;1.17;0.88;;;;;;;15.17;34.60;99486.88;7390516;19;20018;-61
2022/12/08 07:06:05;;;;;;;3.47;1.52;;;;;;;15.05;34.44;99479.00;7390111;19;20018;-61
2022/12/08 07:08:33;;;;;;;2.42;1.77;;;;;;;14.86;34.46;99478.81;7391022;19;20014;-61
2022/12/08 07:11:05;;;;;;;2.22;2.13;;;;;;;14.76;34.82;99466.34;7390152;19;20141;-61
2022/12/08 07:13:31;;;;;;;1.48;1.48;;;;;;;14.73;34.72;99469.41;7391093;19;20169;-61
2022/12/08 07:15:58;;;;;;;1.77;1.20;;;;;;;14.64;34.59;99462.03;7390586;19;20010;-61
2022/12/08 07:18:24;;;;;;;5.68;2.33;;;;;;;14.74;34.60;99463.28;7391381;19;20017;-61
2022/12/08 07:20:50;;;;;;;9.27;3.13;;;;;;;14.82;34.35;99471.94;7391520;19;20347;-61
2022/12/08 07:23:16;;;;;;;1.50;1.35;;;;;;;14.80;34.36;99475.25;7389239;19;20477;-62
2022/12/08 07:25:42;;;;;;;0.70;0.70;;;;;;;14.92;33.87;99476.75;7388395;19;20014;-61
2022/12/08 07:28:10;;;;;;;1.00;1.00;;;;;;;14.88;33.89;99481.84;7393452;19;20010;-61
2022/12/08 07:30:37;;;;;;;1.88;1.77;;;;;;;14.98;33.95;99477.50;7389543;19;20014;-61
2022/12/08 07:33:04;;;;;;;1.65;1.63;;;;;;;14.60;33.57;99477.56;7390185;19;20015;-61
2022/12/08 07:35:30;;;;;;;2.90;2.25;;;;;;;14.89;33.42;99482.63;7390017;19;20017;-61
2022/12/08 07:37:56;;;;;;;2.08;1.98;;;;;;;14.90;33.31;99484.16;7389648;19;20038;-61
2022/12/08 07:40:23;;;;;;;2.00;1.90;;;;;;;14.69;33.33;99480.88;7390581;19;20047;-61
2022/12/08 07:42:49;;;;;;;31.02;6.68;;;;;;;14.54;33.41;99476.81;7389380;19;20007;-61
2022/12/08 07:45:15;;;;;;;19.85;3.30;;;;;;;14.46;33.67;99484.22;7389339;19;20637;-61
2022/12/08 07:47:41;;;;;;;6.95;2.38;;;;;;;14.49;33.80;99477.63;7389980;19;20015;-60
2022/12/08 07:50:07;;;;;;;1.30;1.30;;;;;;;14.52;33.41;99474.53;7388426;19;20014;-61
2022/12/08 07:52:34;;;;;;;2.95;2.75;;;;;;;15.01;33.21;99472.88;7389510;19;20018;-61
2022/12/08 07:55:01;;;;;;;1.20;1.20;;;;;;;14.98;33.13;99469.09;7389734;19;20018;-61
2022/12/08 07:57:27;;;;;;;3.22;2.50;;;;;;;14.83;33.44;99474.25;7391464;19;20010;-61
2022/12/08 07:59:53;;;;;;;7.00;2.20;;;;;;;14.40;33.40;99475.84;7393562;19;20034;-61
2022/12/08 08:02:19;;;;;;;3.90;2.75;;;;;;;14.63;33.77;99477.34;7389610;19;20071;-61
2022/12/08 08:04:49;;;;;;;2.78;2.40;;;;;;;15.15;33.41;99466.22;7389822;19;20010;-62
2022/12/08 08:07:15;;;;;;;1.65;1.40;;;;;;;15.25;33.24;99469.47;7394642;19;20017;-62
2022/12/08 08:09:41;;;;;;;7.80;2.95;;;;;;;15.11;33.30;99465.72;7400566;19;20450;-62
2022/12/08 08:12:09;;;;;;;2.55;2.35;;;;;;;14.90;33.17;99464.53;7396643;19;20364;-60
2022/12/08 08:14:35;;;;;;;4.57;3.20;;;;;;;14.73;33.57;99467.38;7398593;19;20058;-60
2022/12/08 08:17:01;;;;;;;3.55;2.92;;;;;;;14.84;33.22;99481.34;7395992;19;20031;-61
2022/12/08 08:19:27;;;;;;;2.80;2.58;;;;;;;14.86;33.54;99470.38;7396144;19;20106;-61
2022/12/08 08:21:54;;;;;;;2.58;2.47;;;;;;;14.84;33.26;99463.75;7397187;19;20011;-60
2022/12/08 08:24:21;;;;;;;13.15;5.00;;;;;;;14.91;33.23;99458.41;7396265;19;20011;-60
2022/12/08 08:26:47;;;;;;;6.15;4.45;;;;;;;13.76;33.81;99462.03;7395924;19;20029;-61
2022/12/08 08:29:13;;;;;;;18.25;6.32;;;;;;;14.42;33.76;99462.09;7398950;19;20074;-61
2022/12/08 08:31:39;;;;;;;13.40;7.07;;;;;;;14.41;33.84;99460.56;7396046;19;20033;-61
2022/12/08 08:34:05;;;;;;;13.45;6.38;;;;;;;14.78;33.54;99461.00;7396109;19;20006;-61
2022/12/08 08:36:32;;;;;;;13.02;5.20;;;;;;;14.90;33.42;99445.66;7396247;19;20351;-61
2022/12/08 08:38:58;;;;;;;35.05;7.57;;;;;;;14.99;33.42;99453.78;7395227;19;20038;-61
2022/12/08 08:41:24;;;;;;;3.35;3.05;;;;;;;15.08;33.16;99450.69;7396101;19;20051;-61
2022/12/08 08:43:51;;;;;;;2.95;2.42;;;;;;;15.11;33.23;99446.09;7394196;19;20015;-61
2022/12/08 08:46:17;;;;;;;3.13;2.28;;;;;;;15.09;32.77;99452.19;7394736;19;20019;-61
2022/12/08 08:48:43;;;;;;;1.55;1.50;;;;;;;15.15;32.57;99444.53;7396908;19;20037;-61
2022/12/08 08:51:11;;;;;;;2.85;2.65;;;;;;;15.10;32.95;99436.91;7395560;19;20355;-61
2022/12/08 08:53:38;;;;;;;12.85;3.65;;;;;;;15.11;32.83;99446.84;7395589;19;20010;-61
2022/12/08 08:56:13;;;;;;;1.80;1.70;;;;;;;15.41;33.14;99440.56;7395045;19;20018;-61
2022/12/08 08:58:40;;;;;;;5.40;4.18;;;;;;;15.46;32.90;99440.59;7396557;19;20010;-61
2022/12/08 09:01:07;;;;;;;8.50;2.00;;;;;;;16.01;32.29;99444.28;7398465;19;20032;-61
2022/12/08 09:03:33;;;;;;;10.38;1.55;;;;;;;16.08;32.25;99444.47;7394489;19;20037;-61
2022/12/08 09:05:59;;;;;;;3.85;2.95;;;;;;;16.15;32.19;99443.91;7392971;19;20422;-61
2022/12/08 09:08:25;;;;;;;5.57;3.30;;;;;;;16.25;32.37;99447.91;7396123;19;20018;-61
2022/12/08 09:10:53;;;;;;;3.25;2.83;;;;;;;15.96;32.51;99457.06;7394629;19;20014;-61
2022/12/08 09:13:21;;;;;;;24.38;3.22;;;;;;;16.12;32.23;99450.56;7394568;19;20375;-61
2022/12/08 09:15:47;;;;;;;11.00;2.58;;;;;;;16.21;32.55;99447.44;7392753;19;20011;-61
2022/12/08 09:18:13;;;;;;;4.90;3.13;;;;;;;16.10;32.48;99458.00;7392784;19;20023;-61
2022/12/08 09:20:39;;;;;;;4.25;3.50;;;;;;;15.99;32.31;99444.81;7394012;19;20011;-61
2022/12/08 09:23:05;;;;;;;2.22;2.20;;;;;;;16.18;32.21;99440.03;7394005;19;20078;-61
2022/12/08 09:25:31;;;;;;;22.33;4.32;;;;;;;16.11;32.76;99446.25;7393377;19;20011;-61
2022/12/08 09:27:58;;;;;;;13.48;4.15;;;;;;;16.11;32.86;99449.06;7396305;19;20014;-61
2022/12/08 09:30:25;;;;;;;37.58;8.30;;;;;;;16.25;32.40;99442.28;7393477;19;20033;-61
2022/12/08 09:32:51;;;;;;;12.07;3.17;;;;;;;16.39;32.67;99429.91;7391536;19;20025;-62
2022/12/08 09:35:17;;;;;;;12.23;6.18;;;;;;;16.30;32.61;99432.28;7394116;19;20025;-61
2022/12/08 09:37:44;;;;;;;17.27;6.43;;;;;;;16.25;32.57;99419.81;7393373;19;20105;-61
2022/12/08 09:40:16;;;;;;;5.25;1.75;;;;;;;16.47;32.45;99413.97;7394004;19;20044;-62
2022/12/08 09:43:11;;;;;;;4.03;2.38;;;;;;;16.57;32.39;99420.78;7393787;19;20015;-61
2022/12/08 09:45:43;;;;;;;7.50;4.13;;;;;;;16.27;32.87;99417.25;7392801;19;20010;-62
2022/12/08 09:48:24;;;;;;;4.70;3.78;;;;;;;15.98;33.45;99408.81;7394700;19;20007;-62
2022/12/08 09:50:55;;;;;;;2.67;2.47;;;;;;;16.25;33.12;99417.00;7392138;19;20082;-61
2022/12/08 09:53:21;;;;;;;3.95;2.03;;;;;;;16.66;32.54;99426.06;7389898;19;20014;-61
2022/12/08 09:56:11;;;;;;;4.88;3.15;;;;;;;16.86;32.61;99432.50;7391996;19;20032;-61
2022/12/08 09:58:55;;;;;;;2.90;1.90;;;;;;;17.07;32.47;99430.69;7393635;19;20030;-61
2022/12/08 10:01:26;;;;;;;2.33;1.70;;;;;;;17.25;32.75;99435.59;7393011;19;20023;-61
2022/12/08 10:03:54;;;;;;;2.27;2.13;;;;;;;17.65;32.38;99428.91;7392459;19;20022;-61
2022/12/08 10:06:32;;;;;;;2.25;2.03;;;;;;;17.82;32.12;99432.22;7391632;19;20235;-61
2022/12/08 10:09:04;;;;;;;1.92;1.83;;;;;;;18.01;32.06;99432.97;7395353;19;20025;-62
2022/12/08 10:11:45;;;;;;;8.00;4.07;;;;;;;4.58;45.15;99458.00;7392727;19;20039;-61
2022/12/08 10:14:41;;;;;;;3.78;1.92;;;;;;;16.00;35.12;99421.06;7394454;19;20011;-61
2022/12/08 10:17:29;;;;;;;6.07;3.00;;;;;;;17.41;33.22;99420.53;7392727;19;20076;-61
2022/12/08 10:20:03;;;;;;;17.42;2.97;;;;;;;18.14;32.96;99427.38;7397021;19;20247;-61
2022/12/08 10:22:34;;;;;;;4.85;2.83;;;;;;;18.33;32.68;99424.47;7391282;19;20047;-61
2022/12/08 10:25:09;;;;;;;8.38;4.53;;;;;;;18.60;32.39;99428.84;7391110;19;20463;-61
2022/12/08 10:27:36;;;;;;;3.80;2.50;;;;;;;18.80;31.85;99428.22;7395424;19;20021;-61
2022/12/08 10:30:11;;;;;;;4.20;3.35;;;;;;;19.03;31.81;99428.56;7396107;19;20022;-61
2022/12/08 10:32:46;;;;;;;7.47;2.83;;;;;;;19.10;31.62;99421.50;7388537;19;20355;-61
2022/12/08 10:35:15;;;;;;;2.88;2.33;;;;;;;19.04;32.15;99424.41;7390455;19;20018;-61
2022/12/08 10:37:57;;;;;;;5.03;1.75;;;;;;;18.78;32.42;99413.91;7391684;19;20066;-61
2022/12/08 10:40:26;;;;;;;11.35;2.70;;;;;;;18.72;32.26;99415.31;7391406;19;20365;-61
2022/12/08 10:42:56;;;;;;;20.65;4.18;;;;;;;18.77;32.41;99411.63;7390569;19;20011;-61
2022/12/08 10:45:25;;;;;;;9.65;2.08;;;;;;;19.03;32.39;99417.25;7392395;19;20593;-61
2022/12/08 10:48:03;;;;;;;1.85;1.77;;;;;;;19.26;32.08;99409.84;7392130;19;20010;-61
2022/12/08 10:50:32;;;;;;;12.75;3.75;;;;;;;19.12;32.09;99411.19;7390493;19;20093;-61
2022/12/08 10:53:07;;;;;;;2.72;2.53;;;;;;;18.82;32.21;99405.88;7389257;19;20022;-61
2022/12/08 10:56:05;;;;;;;4.75;2.65;;;;;;;18.97;32.59;99408.16;7391539;19;20006;-60
2022/12/08 10:58:36;;;;;;;8.95;4.85;;;;;;;18.99;32.28;99399.13;7394525;19;20010;-60
2022/12/08 11:01:05;;;;;;;8.13;4.10;;;;;;;19.02;32.50;99404.44;7390564;19;20014;-60
2022/12/08 11:03:48;;;;;;;2.25;2.08;;;;;;;18.76;32.70;99393.19;7390522;19;20062;-60
2022/12/08 11:06:22;;;;;;;3.08;2.85;;;;;;;19.22;32.76;99394.53;7387877;19;20399;-60
2022/12/08 11:08:57;;;;;;;10.80;3.15;;;;;;;19.39;32.51;99386.47;7391349;19;20018;-60
2022/12/08 11:11:37;;;;;;;10.90;5.55;;;;;;;19.34;32.59;99390.94;7387646;19;20070;-60
2022/12/08 11:14:07;;;;;;;11.48;4.90;;;;;;;19.37;32.32;99386.25;7391256;19;20033;-61
2022/12/08 11:16:34;;;;;;;10.23;5.63;;;;;;;19.30;32.49;99384.06;7389024;19;20579;-60
2022/12/08 11:19:07;;;;;;;3.28;2.10;;;;;;;19.35;32.57;99375.53;7392545;19;20018;-60
2022/12/08 11:21:36;;;;;;;1.45;1.35;;;;;;;19.46;32.90;99383.75;7388801;19;20510;-60
2022/12/08 11:24:20;;;;;;;4.97;1.92;;;;;;;19.53;33.04;99385.88;7389445;19;20018;-60
2022/12/08 11:26:52;;;;;;;1.88;1.75;;;;;;;19.54;32.56;99376.09;7388731;19;20021;-60
2022/12/08 11:29:19;;;;;;;2.80;1.80;;;;;;;19.33;33.22;99364.00;7391750;19;20015;-60
2022/12/08 11:32:03;;;;;;;14.02;2.00;;;;;;;19.06;33.43;99354.06;7389518;19;20088;-64
2022/12/08 11:34:45;;;;;;;3.28;3.05;;;;;;;18.79;33.56;99358.25;7389401;19;20802;-64
2022/12/08 11:37:21;;;;;;;6.47;2.90;;;;;;;18.88;34.04;99354.97;7386568;19;20102;-64
2022/12/08 11:39:54;;;;;;;3.60;2.50;;;;;;;18.88;33.72;99349.34;7391589;19;20006;-64
2022/12/08 11:42:26;;;;;;;21.00;2.35;;;;;;;18.88;33.99;99349.34;7387776;19;20007;-64
2022/12/08 11:44:57;;;;;;;4.95;3.45;;;;;;;19.21;33.66;99342.94;7389148;19;20014;-64
2022/12/08 11:47:47;;;;;;;4.45;3.03;;;;;;;19.30;34.01;99338.91;7389268;19;20026;-64
2022/12/08 11:50:27;;;;;;;13.65;2.67;;;;;;;19.48;33.66;99338.75;7388924;19;20363;-64